Corinna, Maine
Current Conditions -  °F | °C
As of 6:53 AM on Wednesday 28 Jan 2015 (Local Time) from KBGR Reporting Station
Light Snow Light Snow  
Wind Chill: -2°   Ceiling: 3500
Heat Index: 15°   Visibility: 6mi
Dew Point:   Wind: 18mph
Humidity: 74%   Direction: 360°N
Pressure: 29.75"   Gusts: 30mph
Location:  44.92°N, 69.26°W
Report Text: KBGR 281153Z 36016G26KT 6SM -SN BLSN BR OVC035 M09/M13 A2975 RMK AO2 PK WND 35029/1132 SLP080 4/021 P0000 60000 70012 T10941133 11094 21111 53019
Loading
Personal Weather Stations






























Interactive Weather Map New forecast layout! Learn more

10-Day Weather Forecast

Advertisements
Track Severe Weather on mobile